9PA2 weather

Old Plains Airport
Pennsburg, Pennsylvania, United States

Public forecast

Using degrees Fahrenheit for public forecast. Weather courtesy of forecast.io.

METAR (pilot weather report)

Closest report is Quakertown Airport, 3.7 nm (6.8 km) NE. Retrieved 2019/09/22 13:40 UTC (0 seconds ago):

KUKT 221340Z AUTO 00000KT 10SM CLR 22/17 A3019 RMK A01

TAF (pilot weather forecast)

Closest forecast is Lehigh Valley International Airport, 15.5 nm (28.6 km) N. Retrieved 2019/09/22 12:24 UTC (1 hour ago):

TAF KABE 221121Z 2212/2312 VRB03KT P6SM SKC FM221400 21006KT P6SM FEW050 SCT200 FM230000 VRB04KT P6SM SCT250